Time;durP1;ratioP1;P1;durP2;ratioP2;P2;SDS_P1;SDS_P2;PMS_P1;PMS_P2;Temp;Humidity;BMP_temperature;BMP_pressure;BME280_temperature;BME280_humidity;BME280_pressure;Samples;Min_cycle;Max_cycle;Signal;HPM_P1;HPM_P2
2020/12/23 00:01:28;;;;;;;2.08;1.15;;;;;;;8.69;88.70;100227.58;1713093;81;25630;-80
2020/12/23 00:03:56;;;;;;;2.10;1.10;;;;;;;8.66;88.86;100226.10;1741948;81;25906;-81
2020/12/23 00:06:34;;;;;;;3.30;1.30;;;;;;;8.66;88.66;100230.64;1686588;81;25720;-80
2020/12/23 00:09:04;;;;;;;2.02;1.02;;;;;;;8.64;88.71;100232.66;1703605;81;25388;-81
2020/12/23 00:11:34;;;;;;;1.82;1.02;;;;;;;8.62;88.62;100235.49;1726805;81;28270;-80
2020/12/23 00:14:01;;;;;;;2.08;1.37;;;;;;;8.61;88.63;100239.69;1742347;81;26324;-80
2020/12/23 00:16:28;;;;;;;1.55;1.17;;;;;;;8.61;88.56;100242.36;1681281;81;25920;-81
2020/12/23 00:18:56;;;;;;;2.40;1.10;;;;;;;8.61;88.37;100237.86;1693652;81;26109;-81
2020/12/23 00:21:23;;;;;;;2.12;0.95;;;;;;;8.58;88.27;100247.55;1717997;82;25858;-80
2020/12/23 00:23:51;;;;;;;1.45;1.10;;;;;;;8.57;88.35;100253.92;1746127;81;27582;-80
2020/12/23 00:26:18;;;;;;;1.50;0.90;;;;;;;8.55;88.34;100263.42;1682623;81;25826;-80
2020/12/23 00:28:45;;;;;;;1.82;1.30;;;;;;;8.54;88.22;100264.45;1692891;81;25852;-81
2020/12/23 00:31:16;;;;;;;2.67;1.47;;;;;;;8.54;88.36;100257.78;1696916;81;26032;-80
2020/12/23 00:33:44;;;;;;;1.82;1.05;;;;;;;8.57;88.17;100255.75;1742542;81;25803;-81
2020/12/23 00:36:13;;;;;;;2.33;1.02;;;;;;;8.57;88.29;100257.92;1686601;83;27534;-80
2020/12/23 00:38:41;;;;;;;3.42;1.40;;;;;;;8.56;88.15;100257.58;1675574;82;25735;-80
2020/12/23 00:41:10;;;;;;;2.45;1.82;;;;;;;8.55;88.06;100274.63;1692535;83;26541;-81
2020/12/23 00:43:37;;;;;;;2.02;1.30;;;;;;;8.54;87.97;100281.80;1716777;83;25788;-80
2020/12/23 00:46:09;;;;;;;1.22;1.12;;;;;;;8.53;88.10;100278.80;1681730;82;26179;-82
2020/12/23 00:48:36;;;;;;;1.52;1.25;;;;;;;8.53;88.02;100287.33;1708885;83;27292;-81
2020/12/23 00:51:14;;;;;;;3.40;2.00;;;;;;;8.52;88.08;100293.66;1717041;83;25756;-80
2020/12/23 00:53:42;;;;;;;6.15;2.25;;;;;;;8.52;88.01;100305.67;1728263;81;25595;-81
2020/12/23 00:56:11;;;;;;;2.90;2.20;;;;;;;8.49;87.78;100307.36;1689697;81;25800;-81
2020/12/23 00:58:38;;;;;;;2.85;2.08;;;;;;;8.44;87.37;100302.59;1690234;82;25913;-82
2020/12/23 01:01:06;;;;;;;2.70;2.00;;;;;;;8.40;87.20;100303.12;1712857;82;27553;-80
2020/12/23 01:03:34;;;;;;;2.12;1.92;;;;;;;8.39;86.71;100310.30;1680679;81;25877;-79
2020/12/23 01:06:08;;;;;;;3.37;2.40;;;;;;;8.38;86.87;100319.83;1719929;81;25748;-81
2020/12/23 01:08:35;;;;;;;2.02;1.82;;;;;;;8.35;86.80;100320.17;1710593;82;26458;-80
2020/12/23 01:11:07;;;;;;;1.85;1.40;;;;;;;8.34;86.95;100321.20;1742697;81;26034;-81
2020/12/23 01:13:34;;;;;;;2.30;1.15;;;;;;;8.33;86.43;100312.35;1678203;82;28502;-81
2020/12/23 01:16:03;;;;;;;2.20;1.35;;;;;;;8.33;86.19;100311.02;1674849;82;25857;-80
2020/12/23 01:18:30;;;;;;;1.42;0.90;;;;;;;8.33;86.22;100311.02;1693435;83;26389;-80
2020/12/23 01:20:58;;;;;;;1.25;0.80;;;;;;;8.32;86.06;100313.34;1716648;83;26557;-80
2020/12/23 01:23:25;;;;;;;1.77;0.90;;;;;;;8.31;86.18;100316.20;1664065;83;25845;-80
2020/12/23 01:25:55;;;;;;;2.90;1.07;;;;;;;8.33;86.00;100318.19;1695912;81;27551;-80
2020/12/23 01:28:22;;;;;;;1.15;0.80;;;;;;;8.31;85.94;100323.71;1717607;81;25796;-81
2020/12/23 01:30:50;;;;;;;1.40;1.02;;;;;;;8.31;85.91;100313.53;1727266;82;25795;-80
2020/12/23 01:33:17;;;;;;;1.42;0.90;;;;;;;8.32;86.11;100316.02;1683359;83;25834;-81
2020/12/23 01:35:45;;;;;;;1.70;0.85;;;;;;;8.32;85.89;100309.84;1692388;83;25965;-81
2020/12/23 01:38:12;;;;;;;3.72;1.10;;;;;;;8.32;85.98;100316.02;1705470;81;28051;-81
2020/12/23 01:40:39;;;;;;;2.12;0.90;;;;;;;8.35;85.98;100309.49;1704210;82;26066;-80
2020/12/23 01:43:08;;;;;;;2.20;1.00;;;;;;;8.35;85.95;100310.33;1670519;81;25724;-80
2020/12/23 01:45:36;;;;;;;2.47;1.00;;;;;;;8.37;85.95;100308.81;1669665;83;26477;-80
2020/12/23 01:48:17;;;;;;;1.15;0.85;;;;;;;8.38;85.89;100309.15;1682487;83;26056;-81
2020/12/23 01:50:45;;;;;;;1.27;1.02;;;;;;;8.37;85.69;100310.14;1706100;83;28460;-80
2020/12/23 01:53:13;;;;;;;2.10;1.00;;;;;;;8.35;85.69;100310.33;1689665;83;26201;-80
2020/12/23 01:55:42;;;;;;;1.67;0.90;;;;;;;8.35;85.76;100316.16;1703099;82;25794;-82
2020/12/23 01:58:10;;;;;;;2.20;1.20;;;;;;;8.34;85.68;100311.86;1680940;83;25999;-81
2020/12/23 02:00:39;;;;;;;3.85;1.52;;;;;;;8.31;85.62;100328.21;1714962;82;25441;-81
2020/12/23 02:03:09;;;;;;;3.42;2.33;;;;;;;8.28;85.70;100328.06;1656459;83;27549;-80
2020/12/23 02:05:41;;;;;;;11.18;4.65;;;;;;;8.27;85.86;100326.91;1677687;82;25989;-80
2020/12/23 02:08:12;;;;;;;8.80;3.95;;;;;;;8.25;85.76;100315.09;1697646;82;25831;-80
2020/12/23 02:10:39;;;;;;;;;;;;;;;8.22;85.76;100322.08;1732243;81;26436;-80
2020/12/23 02:13:06;;;;;;;3.00;2.02;;;;;;;8.20;85.95;100321.42;1649428;84;25918;-80
2020/12/23 02:15:34;;;;;;;2.77;1.85;;;;;;;8.20;86.06;100308.58;1726076;81;28590;-81
2020/12/23 02:18:01;;;;;;;2.80;2.00;;;;;;;8.21;85.92;100312.92;1715028;81;25802;-80
2020/12/23 02:20:28;;;;;;;4.03;2.40;;;;;;;8.19;85.74;100312.27;1722135;81;25939;-82
2020/12/23 02:22:56;;;;;;;3.22;2.45;;;;;;;8.18;85.71;100317.27;1672090;82;26353;-80
2020/12/23 02:25:23;;;;;;;5.42;2.50;;;;;;;8.16;85.41;100316.62;1755587;81;25830;-81
2020/12/23 02:27:50;;;;;;;6.08;2.50;;;;;;;8.12;85.14;100328.66;1717053;82;26987;-80
2020/12/23 02:30:18;;;;;;;3.37;2.40;;;;;;;8.08;85.34;100329.53;1695034;81;25903;-80
2020/12/23 02:32:45;;;;;;;3.70;2.50;;;;;;;8.05;85.18;100341.03;1745607;81;25815;-80
2020/12/23 02:35:13;;;;;;;4.28;2.77;;;;;;;8.03;85.09;100356.38;1711447;82;26174;-80
2020/12/23 02:37:40;;;;;;;4.95;3.80;;;;;;;8.01;85.31;100370.41;1715081;81;25825;-80
2020/12/23 02:40:07;;;;;;;5.80;3.42;;;;;;;7.97;85.23;100365.93;1707226;81;27544;-80
2020/12/23 02:42:35;;;;;;;4.45;3.10;;;;;;;7.93;85.23;100371.79;1706580;82;26707;-81
2020/12/23 02:45:02;;;;;;;7.50;3.62;;;;;;;7.90;85.20;100370.30;1714754;82;25869;-80
2020/12/23 02:47:30;;;;;;;4.35;2.92;;;;;;;7.88;85.18;100376.80;1676455;81;25878;-80
2020/12/23 02:49:57;;;;;;;5.37;3.27;;;;;;;7.84;85.15;100377.67;1699973;81;26089;-81
2020/12/23 02:52:24;;;;;;;7.70;3.42;;;;;;;7.83;85.14;100379.98;1715499;82;27603;-80
2020/12/23 02:54:52;;;;;;;8.88;4.00;;;;;;;7.85;85.07;100381.17;1689146;81;25775;-81
2020/12/23 02:57:19;;;;;;;5.83;3.33;;;;;;;7.83;84.58;100365.85;1709214;82;26477;-80
2020/12/23 02:59:46;;;;;;;3.83;2.42;;;;;;;7.82;84.61;100357.51;1690420;82;26273;-80
2020/12/23 03:02:14;;;;;;;7.30;2.87;;;;;;;7.80;84.61;100357.16;1717602;81;25874;-80
2020/12/23 03:04:41;;;;;;;6.35;2.65;;;;;;;7.79;83.90;100356.86;1749306;81;27748;-81
2020/12/23 03:07:08;;;;;;;2.87;1.60;;;;;;;7.78;84.13;100353.04;1710495;82;25913;-81
2020/12/23 03:09:36;;;;;;;2.65;1.92;;;;;;;7.75;83.80;100349.37;1701228;82;25841;-80
2020/12/23 03:12:03;;;;;;;3.37;1.52;;;;;;;7.75;83.49;100357.38;1712364;81;25781;-81
2020/12/23 03:14:30;;;;;;;2.75;1.30;;;;;;;7.74;83.50;100359.20;1712362;82;25800;-81
2020/12/23 03:16:59;;;;;;;2.30;1.30;;;;;;;7.72;83.35;100363.04;1735147;81;28403;-82
2020/12/23 03:19:26;;;;;;;3.25;1.50;;;;;;;7.71;83.46;100365.39;1677918;82;25926;-83
2020/12/23 03:21:53;;;;;;;2.77;1.22;;;;;;;7.71;82.49;100362.73;1675034;81;25873;-81
2020/12/23 03:24:20;;;;;;;6.15;1.17;;;;;;;7.71;82.82;100365.39;1661604;83;25650;-80
2020/12/23 03:26:48;;;;;;;5.60;2.10;;;;;;;7.68;83.04;100357.73;1696907;83;26486;-81
2020/12/23 03:29:15;;;;;;;3.12;1.40;;;;;;;7.64;82.84;100369.26;1676503;82;27536;-82
2020/12/23 03:31:42;;;;;;;4.50;1.82;;;;;;;7.61;82.75;100364.78;1676801;81;25926;-81
2020/12/23 03:34:10;;;;;;;6.40;2.15;;;;;;;7.54;82.46;100370.47;1703314;83;25855;-81
2020/12/23 03:36:37;;;;;;;7.47;1.72;;;;;;;7.47;82.47;100384.14;1724513;82;25817;-82
2020/12/23 03:39:07;;;;;;;4.97;1.57;;;;;;;7.40;82.49;100385.33;1711165;81;26279;-83
2020/12/23 03:41:35;;;;;;;5.67;1.80;;;;;;;7.33;82.32;100378.21;1684332;81;28552;-82
2020/12/23 03:44:03;;;;;;;4.05;1.82;;;;;;;7.27;82.27;100389.03;1734893;81;26127;-82
2020/12/23 03:46:30;;;;;;;11.15;2.37;;;;;;;7.20;82.45;100380.08;1696713;82;25700;-81
2020/12/23 03:48:58;;;;;;;8.78;2.52;;;;;;;7.17;82.66;100389.73;1686046;83;25939;-82
2020/12/23 03:51:25;;;;;;;13.85;4.47;;;;;;;7.13;82.52;100387.57;1665285;83;26110;-82
2020/12/23 03:53:52;;;;;;;13.08;4.60;;;;;;;7.07;82.41;100391.76;1680070;83;26730;-82
2020/12/23 03:56:20;;;;;;;5.78;2.08;;;;;;;7.02;82.44;100398.08;1703262;82;26097;-82
2020/12/23 03:58:47;;;;;;;4.85;2.30;;;;;;;6.98;82.47;100398.92;1686358;81;25872;-82
2020/12/23 04:01:14;;;;;;;7.00;1.85;;;;;;;6.95;82.46;100403.73;1666965;85;26394;-82
2020/12/23 04:03:41;;;;;;;4.75;2.15;;;;;;;6.93;82.61;100395.92;1718038;81;25825;-82
2020/12/23 04:06:09;;;;;;;5.67;2.10;;;;;;;6.92;82.45;100400.09;1695422;82;28486;-81
2020/12/23 04:08:36;;;;;;;3.80;2.10;;;;;;;6.91;82.38;100402.41;1682708;81;25830;-82
2020/12/23 04:11:03;;;;;;;3.70;1.55;;;;;;;6.90;82.57;100406.09;1699468;82;25384;-83
2020/12/23 04:13:31;;;;;;;6.87;2.02;;;;;;;6.91;82.54;100405.91;1714760;82;26459;-82
2020/12/23 04:15:58;;;;;;;6.25;1.95;;;;;;;6.92;82.60;100402.27;1744507;81;26687;-82
2020/12/23 04:18:25;;;;;;;3.65;1.77;;;;;;;6.95;82.69;100410.39;1704040;82;28866;-82
2020/12/23 04:20:53;;;;;;;6.15;1.87;;;;;;;6.97;82.74;100412.42;1703067;81;26284;-82
2020/12/23 04:23:20;;;;;;;4.80;1.77;;;;;;;6.98;82.67;100425.55;1719024;81;25886;-81
2020/12/23 04:25:48;;;;;;;3.35;1.72;;;;;;;7.01;82.66;100441.70;1648359;82;25925;-82
2020/12/23 04:28:15;;;;;;;6.58;2.12;;;;;;;7.01;82.63;100448.36;1685294;82;25860;-81
2020/12/23 04:30:45;;;;;;;3.52;1.80;;;;;;;6.98;82.49;100442.86;1694599;82;28428;-82
2020/12/23 04:33:11;;;;;;;3.25;1.40;;;;;;;6.98;82.56;100437.54;1675100;83;25929;-83
2020/12/23 04:35:39;;;;;;;8.35;3.85;;;;;;;7.01;82.72;100447.03;1677641;82;25406;-82
2020/12/23 04:38:06;;;;;;;7.60;2.40;;;;;;;7.03;82.60;100454.35;1689602;83;25829;-81
2020/12/23 04:40:34;;;;;;;4.85;1.70;;;;;;;7.03;82.60;100455.16;1711821;81;25871;-82
2020/12/23 04:43:01;;;;;;;6.72;2.05;;;;;;;7.08;82.70;100449.86;1690144;81;27332;-82
2020/12/23 04:45:29;;;;;;;3.30;1.62;;;;;;;7.09;82.41;100442.18;1697994;81;25868;-82
2020/12/23 04:47:57;;;;;;;18.77;5.45;;;;;;;7.08;82.22;100457.32;1722168;81;25944;-81
2020/12/23 04:50:27;;;;;;;3.70;1.92;;;;;;;7.04;82.42;100461.32;1717960;81;25894;-82
2020/12/23 04:52:54;;;;;;;2.50;1.50;;;;;;;7.01;82.03;100456.35;1711321;81;25967;-81
2020/12/23 04:55:23;;;;;;;4.75;1.60;;;;;;;6.92;81.96;100456.85;1681668;82;27554;-81
2020/12/23 04:57:56;;;;;;;4.03;1.57;;;;;;;6.85;81.27;100457.17;1722599;81;26419;-82
2020/12/23 05:00:26;;;;;;;8.50;1.50;;;;;;;6.78;80.80;100464.64;1711590;81;25835;-81
2020/12/23 05:02:53;;;;;;;5.30;1.55;;;;;;;6.67;80.82;100463.66;1715961;82;25766;-82
2020/12/23 05:05:21;;;;;;;3.50;1.30;;;;;;;6.60;80.63;100474.63;1697523;81;26501;-81
2020/12/23 05:07:48;;;;;;;5.62;1.37;;;;;;;6.57;80.71;100478.44;1695665;81;28067;-82
2020/12/23 05:10:16;;;;;;;6.95;1.67;;;;;;;6.56;80.41;100475.46;1715100;81;26253;-82
2020/12/23 05:12:44;;;;;;;10.63;1.62;;;;;;;6.53;79.88;100472.27;1699256;81;26119;-81
2020/12/23 05:15:11;;;;;;;7.05;1.52;;;;;;;6.48;80.16;100473.28;1696646;82;26363;-82
2020/12/23 05:17:45;;;;;;;6.42;2.08;;;;;;;6.49;80.49;100488.23;1700598;81;26457;-81
2020/12/23 05:20:12;;;;;;;5.28;1.72;;;;;;;6.46;79.80;100488.05;1713881;82;27550;-82
2020/12/23 05:22:45;;;;;;;8.45;2.67;;;;;;;6.39;79.77;100473.77;1717422;81;25992;-82
2020/12/23 05:25:13;;;;;;;3.52;1.40;;;;;;;6.34;79.39;100476.55;1699680;81;25783;-82
2020/12/23 05:27:42;;;;;;;10.18;1.50;;;;;;;6.29;79.17;100485.55;1729756;81;25837;-81
2020/12/23 05:30:10;;;;;;;6.50;1.50;;;;;;;6.24;79.60;100484.69;1719645;82;26440;-82
2020/12/23 05:32:41;;;;;;;8.08;1.70;;;;;;;6.26;79.72;100488.02;1703993;81;27070;-81
2020/12/23 05:35:08;;;;;;;8.28;2.85;;;;;;;6.27;79.46;100499.47;1678491;82;35106;-82
2020/12/23 05:37:36;;;;;;;4.53;1.80;;;;;;;6.24;79.72;100507.30;1719373;81;25781;-82
2020/12/23 05:40:03;;;;;;;7.47;1.77;;;;;;;6.22;79.37;100501.31;1732586;81;25943;-81
2020/12/23 05:42:31;;;;;;;7.33;2.12;;;;;;;6.20;79.47;100499.31;1723068;81;25786;-81
2020/12/23 05:44:59;;;;;;;6.42;1.62;;;;;;;6.19;79.48;100499.80;1691372;82;27486;-81
2020/12/23 05:47:28;;;;;;;7.37;1.72;;;;;;;6.18;79.31;100499.94;1701256;81;26240;-82
2020/12/23 05:49:55;;;;;;;8.83;1.57;;;;;;;6.16;79.21;100500.11;1713854;82;25899;-81
2020/12/23 05:52:23;;;;;;;8.90;2.33;;;;;;;6.11;78.80;100502.44;1740735;81;25721;-82
2020/12/23 05:54:53;;;;;;;6.97;1.95;;;;;;;6.07;78.99;100495.75;1718401;82;26100;-82
2020/12/23 05:57:32;;;;;;;4.33;1.75;;;;;;;6.14;79.15;100504.76;1803351;77;25985;-82
2020/12/23 06:00:00;;;;;;;;;;;;;;;6.12;79.39;100508.08;1810587;78;25862;-82
2020/12/23 06:02:29;;;;;;;15.32;7.30;;;;;;;6.13;79.39;100519.06;1779094;78;27509;-81
2020/12/23 06:05:00;;;;;;;19.00;11.30;;;;;;;6.13;79.42;100516.41;1775295;78;25889;-82
2020/12/23 06:07:31;;;;;;;24.00;15.38;;;;;;;6.13;79.53;100514.23;1778598;78;25841;-82
2020/12/23 06:09:59;;;;;;;;;;;;;;;6.12;79.41;100525.36;1781973;78;26103;-82
2020/12/23 06:12:31;;;;;;;23.42;15.05;;;;;;;6.09;79.59;100524.86;1776184;78;25830;-82
2020/12/23 06:17:40;;;;;;;28.90;17.48;;;;;;;6.15;79.97;100533.03;1830533;77;25763;-82
2020/12/23 06:20:08;;;;;;;;;;;;;;;6.14;80.16;100535.34;1800659;78;25367;-81
2020/12/23 06:22:37;;;;;;;18.17;10.90;;;;;;;6.14;80.18;100536.67;1800022;78;28568;-82
2020/12/23 06:25:05;;;;;;;13.13;6.72;;;;;;;6.12;80.32;100532.01;1770648;80;26483;-82
2020/12/23 06:27:33;;;;;;;11.83;6.03;;;;;;;6.09;80.53;100532.31;1769972;79;25837;-82
2020/12/23 06:30:01;;;;;;;12.15;5.83;;;;;;;6.05;80.72;100532.30;1769190;78;25873;-82
2020/12/23 06:32:29;;;;;;;11.40;6.22;;;;;;;6.03;80.89;100524.98;1785885;78;26411;-82
2020/12/23 06:35:01;;;;;;;14.05;6.12;;;;;;;6.00;81.09;100519.16;1792531;79;27555;-82
2020/12/23 06:37:33;;;;;;;22.05;7.05;;;;;;;6.01;81.27;100527.45;1773904;78;26072;-82
2020/12/23 06:40:09;;;;;;;15.50;6.87;;;;;;;6.04;81.42;100531.14;1770371;78;25848;-82
2020/12/23 06:42:45;;;;;;;22.22;10.05;;;;;;;6.08;81.49;100539.13;1771888;78;26202;-82
2020/12/23 06:45:14;;;;;;;25.90;11.15;;;;;;;6.03;81.30;100527.64;1779939;78;25809;-81
2020/12/23 06:47:42;;;;;;;47.65;22.50;;;;;;;5.98;81.25;100520.66;1783504;78;27086;-81
2020/12/23 06:50:17;;;;;;;55.95;27.90;;;;;;;5.92;81.35;100527.10;1777236;80;25720;-83
2020/12/23 06:52:46;;;;;;;47.33;26.82;;;;;;;5.86;81.37;100529.88;1775228;78;25883;-82
2020/12/23 06:55:16;;;;;;;45.98;24.87;;;;;;;5.84;81.54;100532.35;1782820;78;25731;-81
2020/12/23 06:57:49;;;;;;;26.82;20.82;;;;;;;5.81;81.58;100544.12;1770846;78;25875;-81
2020/12/23 07:03:08;;;;;;;20.35;15.88;;;;;;;5.80;81.55;100549.09;1845547;76;26073;-82
2020/12/23 07:05:39;;;;;;;18.25;15.98;;;;;;;5.67;81.45;100550.49;1797159;78;26500;-82
2020/12/23 07:08:16;;;;;;;13.03;10.40;;;;;;;5.60;81.59;100553.45;1775378;79;27805;-82
2020/12/23 07:10:52;;;;;;;15.18;9.50;;;;;;;5.56;81.63;100554.23;1771972;78;25837;-81
2020/12/23 07:13:22;;;;;;;14.78;6.70;;;;;;;5.54;81.78;100561.53;1814800;78;25752;-81
2020/12/23 07:15:58;;;;;;;13.43;6.42;;;;;;;5.53;81.72;100568.34;1801031;78;25857;-81
2020/12/23 07:18:29;;;;;;;13.62;7.65;;;;;;;5.50;81.61;100573.47;1733698;78;26181;-82
2020/12/23 07:21:07;;;;;;;13.75;8.40;;;;;;;5.43;81.60;100576.42;1792445;78;26054;-82
2020/12/23 07:23:36;;;;;;;14.58;6.78;;;;;;;5.34;81.81;100579.99;1680069;83;26458;-81
2020/12/23 07:26:06;;;;;;;13.85;7.05;;;;;;;5.32;81.98;100587.28;1679097;81;27547;-82
2020/12/23 07:28:40;;;;;;;15.83;6.85;;;;;;;5.30;81.98;100577.31;1668087;82;25783;-82
2020/12/23 07:31:11;;;;;;;18.40;7.50;;;;;;;5.28;81.98;100584.59;1694641;82;25808;-82
2020/12/23 07:33:42;;;;;;;20.80;9.30;;;;;;;5.24;82.01;100584.53;1693528;82;26081;-82
2020/12/23 07:36:10;;;;;;;20.02;8.98;;;;;;;5.21;82.03;100585.70;1656528;84;26075;-82
2020/12/23 07:38:39;;;;;;;44.63;15.05;;;;;;;5.14;82.10;100591.27;1685781;82;27533;-81
2020/12/23 07:41:12;;;;;;;47.43;17.65;;;;;;;5.10;82.26;100584.59;1701471;84;26188;-82
2020/12/23 07:43:40;;;;;;;27.25;11.97;;;;;;;5.08;82.31;100599.84;1723521;82;25730;-81
2020/12/23 07:46:07;;;;;;;31.95;12.30;;;;;;;5.09;82.44;100600.69;1683853;83;26317;-82
2020/12/23 07:48:36;;;;;;;28.35;11.08;;;;;;;5.06;82.33;100592.53;1687122;82;25816;-82
2020/12/23 07:51:03;;;;;;;26.05;10.38;;;;;;;5.04;82.45;100593.17;1692578;82;28488;-81
2020/12/23 07:53:31;;;;;;;24.63;10.00;;;;;;;5.03;82.50;100598.61;1715226;82;26306;-81
2020/12/23 07:56:05;;;;;;;18.75;9.90;;;;;;;5.02;82.62;100601.78;1658053;82;25940;-82
2020/12/23 07:58:35;;;;;;;35.10;18.10;;;;;;;5.01;82.64;100594.80;1683118;82;26227;-82
2020/12/23 08:01:07;;;;;;;20.25;12.40;;;;;;;5.00;82.58;100597.61;1686825;82;25963;-81
2020/12/23 08:03:35;;;;;;;24.75;10.32;;;;;;;4.98;82.71;100608.38;1716337;82;27544;-82
2020/12/23 08:06:07;;;;;;;18.70;9.83;;;;;;;5.00;82.83;100614.38;1693114;82;25728;-81
2020/12/23 08:08:36;;;;;;;27.15;10.75;;;;;;;5.00;82.77;100608.22;1689369;82;26047;-82
2020/12/23 08:11:14;;;;;;;20.57;10.93;;;;;;;5.01;82.86;100617.35;1697956;82;26263;-81
2020/12/23 08:13:43;;;;;;;20.80;10.48;;;;;;;5.03;82.90;100615.38;1714982;82;25830;-82
2020/12/23 08:16:17;;;;;;;20.43;9.83;;;;;;;5.07;82.88;100613.28;1674877;82;27537;-81
2020/12/23 08:18:46;;;;;;;25.15;9.95;;;;;;;5.08;82.86;100610.95;1705077;82;25893;-81
2020/12/23 08:23:55;;;;;;;47.05;19.90;;;;;;;5.16;82.85;100614.52;1837467;77;25793;-81
2020/12/23 08:26:23;;;;;;;27.50;11.12;;;;;;;5.13;82.88;100622.77;1796552;78;25698;-87
2020/12/23 08:28:51;;;;;;;21.60;9.43;;;;;;;5.14;82.87;100624.45;1735971;78;28347;-84
2020/12/23 08:31:23;;;;;;;21.97;8.10;;;;;;;5.15;82.83;100623.48;1753169;78;25843;-83
2020/12/23 08:33:51;;;;;;;22.02;9.93;;;;;;;5.18;82.79;100628.96;1778704;78;26187;-83
2020/12/23 08:36:23;;;;;;;32.88;10.30;;;;;;;5.22;82.84;100631.66;1793964;78;25814;-84
2020/12/23 08:38:57;;;;;;;18.77;7.90;;;;;;;5.26;82.72;100635.70;1721862;78;25868;-84
2020/12/23 08:41:26;;;;;;;19.50;8.98;;;;;;;5.25;82.73;100642.83;1802860;78;28477;-84
2020/12/23 08:43:55;;;;;;;23.40;8.63;;;;;;;5.27;82.66;100640.02;1754832;78;25925;-82
2020/12/23 08:46:25;;;;;;;24.52;11.05;;;;;;;5.28;82.79;100640.37;1805964;78;25828;-82
2020/12/23 08:48:55;;;;;;;18.52;8.75;;;;;;;5.31;82.75;100635.58;1750895;80;25958;-84
2020/12/23 08:51:26;;;;;;;18.07;7.83;;;;;;;5.33;82.74;100637.58;1778242;78;25957;-85
2020/12/23 08:53:57;;;;;;;29.30;10.30;;;;;;;5.34;82.65;100633.95;1774143;78;28294;-83
2020/12/23 08:56:33;;;;;;;20.32;8.20;;;;;;;5.33;82.60;100634.92;1795638;78;26471;-83
2020/12/23 08:59:05;;;;;;;18.25;7.87;;;;;;;5.34;82.55;100631.78;1715599;81;25435;-85
2020/12/23 09:01:35;;;;;;;20.80;10.08;;;;;;;5.34;82.67;100639.27;1723365;82;26234;-83
2020/12/23 09:04:09;;;;;;;24.20;10.13;;;;;;;5.36;82.47;100638.62;1731343;81;26184;-82
2020/12/23 09:06:47;;;;;;;21.33;10.03;;;;;;;5.38;82.52;100628.67;1748542;81;27508;-82
2020/12/23 09:09:21;;;;;;;24.52;10.95;;;;;;;5.40;82.64;100633.34;1751131;80;26073;-83
2020/12/23 09:11:54;;;;;;;21.80;9.93;;;;;;;5.43;82.32;100630.36;1693514;82;25885;-85
2020/12/23 09:14:38;;;;;;;31.93;12.88;;;;;;;5.44;82.31;100623.23;1716343;81;26459;-83
2020/12/23 09:17:13;;;;;;;23.65;10.45;;;;;;;5.45;82.20;100626.24;1737655;81;25727;-83
2020/12/23 09:20:03;;;;;;;23.12;10.15;;;;;;;5.47;82.16;100636.22;1693253;81;27539;-84
2020/12/23 09:22:38;;;;;;;27.40;12.13;;;;;;;5.47;82.16;100637.55;1718666;80;25898;-83
2020/12/23 09:25:26;;;;;;;38.10;14.73;;;;;;;5.51;82.11;100636.73;1749332;81;26249;-83
2020/12/23 09:27:56;;;;;;;25.82;12.50;;;;;;;5.54;82.08;100647.07;1733384;81;25848;-83
2020/12/23 09:30:46;;;;;;;26.90;13.68;;;;;;;5.56;82.09;100647.23;1726005;81;25799;-87
2020/12/23 09:33:20;;;;;;;23.45;11.25;;;;;;;5.59;82.12;100648.75;1760278;78;27533;-83
2020/12/23 09:35:51;;;;;;;26.73;11.83;;;;;;;5.65;82.21;100641.00;1786307;78;26197;-82
2020/12/23 09:41:06;;;;;;;33.18;11.68;;;;;;;5.74;81.51;100628.61;1849705;75;25681;-84
2020/12/23 09:43:36;;;;;;;29.27;10.68;;;;;;;5.67;81.40;100625.73;1839326;77;25937;-84
2020/12/23 09:46:08;;;;;;;21.40;10.75;;;;;;;5.67;81.00;100624.41;1783665;77;27372;-83
2020/12/23 09:48:36;;;;;;;19.50;8.83;;;;;;;5.67;81.23;100630.21;1819212;78;25330;-83
2020/12/23 09:51:06;;;;;;;22.07;7.85;;;;;;;5.68;81.14;100635.39;1767337;78;25827;-84
2020/12/23 09:53:33;;;;;;;20.85;7.78;;;;;;;5.69;81.16;100633.06;1822828;78;25753;-84
2020/12/23 09:56:01;;;;;;;19.25;8.68;;;;;;;5.72;80.91;100631.44;1759980;78;25771;-84
2020/12/23 09:58:29;;;;;;;19.57;8.28;;;;;;;5.72;80.78;100630.59;1753115;78;27592;-84
2020/12/23 10:00:56;;;;;;;19.30;7.40;;;;;;;5.71;80.54;100635.06;1792662;78;25789;-83
2020/12/23 10:03:24;;;;;;;14.00;6.33;;;;;;;5.71;80.56;100628.94;1817800;77;25797;-83
2020/12/23 10:05:52;;;;;;;18.23;7.55;;;;;;;5.71;80.36;100631.08;1732833;80;25834;-84
2020/12/23 10:08:20;;;;;;;19.60;7.40;;;;;;;5.71;80.55;100636.91;1757957;80;25850;-84
2020/12/23 10:10:48;;;;;;;21.93;9.78;;;;;;;5.73;80.47;100640.25;1819696;78;27526;-83
2020/12/23 10:13:16;;;;;;;21.37;10.75;;;;;;;5.73;80.06;100634.94;1823636;78;26389;-83
2020/12/23 10:15:43;;;;;;;13.28;6.90;;;;;;;5.73;80.25;100632.28;1749879;78;26296;-84
2020/12/23 10:18:11;;;;;;;17.32;7.00;;;;;;;5.73;79.90;100631.76;1725630;78;26083;-84
2020/12/23 10:20:39;;;;;;;13.13;7.28;;;;;;;5.72;80.05;100634.09;1785552;78;25746;-82
2020/12/23 10:23:07;;;;;;;15.80;6.40;;;;;;;5.74;80.05;100633.92;1780445;77;27074;-84
2020/12/23 10:25:37;;;;;;;29.77;10.17;;;;;;;5.76;80.01;100637.27;1726522;80;25868;-82
2020/12/23 10:28:04;;;;;;;25.77;9.13;;;;;;;5.76;79.44;100626.14;1784746;78;26021;-84
2020/12/23 10:30:32;;;;;;;22.50;8.08;;;;;;;5.74;79.46;100624.63;1722825;80;25801;-84
2020/12/23 10:33:01;;;;;;;24.35;9.58;;;;;;;5.74;79.58;100625.95;1813945;78;25722;-83
2020/12/23 10:35:31;;;;;;;20.20;9.53;;;;;;;5.75;79.38;100627.64;1738189;78;28266;-83
2020/12/23 10:37:58;;;;;;;22.42;9.70;;;;;;;5.72;79.20;100631.44;1791331;78;25936;-83
2020/12/23 10:40:26;;;;;;;19.00;7.97;;;;;;;5.70;79.01;100616.63;1816984;78;25801;-86
2020/12/23 10:42:53;;;;;;;13.60;6.20;;;;;;;5.70;78.98;100616.63;1815387;78;26033;-83
2020/12/23 10:45:21;;;;;;;16.02;6.70;;;;;;;5.68;78.86;100623.92;1730234;78;25933;-84
2020/12/23 10:47:49;;;;;;;31.00;14.75;;;;;;;5.68;78.69;100623.44;1771806;79;27527;-84
2020/12/23 10:50:18;;;;;;;27.10;13.03;;;;;;;5.68;78.77;100627.42;1761803;78;25417;-84
2020/12/23 10:52:46;;;;;;;31.60;15.93;;;;;;;5.70;78.94;100629.91;1788758;79;25669;-83
2020/12/23 10:55:14;;;;;;;27.30;15.15;;;;;;;5.70;79.00;100605.52;1720827;79;25670;-83
2020/12/23 10:57:41;;;;;;;31.65;15.85;;;;;;;5.71;78.73;100621.78;1744776;80;25811;-84
2020/12/23 11:00:09;;;;;;;27.40;14.53;;;;;;;5.73;78.98;100620.31;1722431;81;28342;-83
2020/12/23 11:02:37;;;;;;;37.50;17.45;;;;;;;5.75;78.78;100610.36;1756905;80;25477;-84
2020/12/23 11:05:05;;;;;;;24.10;12.25;;;;;;;5.77;78.86;100608.38;1705633;80;25895;-84
2020/12/23 11:07:32;;;;;;;32.17;15.08;;;;;;;5.77;78.85;100611.04;1716244;81;26162;-83
2020/12/23 11:10:01;;;;;;;33.80;15.30;;;;;;;5.77;78.77;100607.89;1736681;80;25426;-82
2020/12/23 11:12:28;;;;;;;32.65;15.72;;;;;;;5.79;78.82;100602.41;1760157;80;27476;-82
2020/12/23 11:14:56;;;;;;;42.20;20.80;;;;;;;5.81;78.93;100600.44;1711762;81;25861;-83
2020/12/23 11:17:23;;;;;;;43.65;19.23;;;;;;;5.84;78.71;100603.63;1748990;80;26152;-82
2020/12/23 11:19:51;;;;;;;21.77;11.90;;;;;;;5.85;78.74;100601.33;1747312;80;25817;-84
2020/12/23 11:22:19;;;;;;;22.37;9.85;;;;;;;5.88;78.68;100601.52;1772501;80;26309;-84
2020/12/23 11:24:46;;;;;;;30.20;13.03;;;;;;;5.88;78.49;100594.35;1764184;80;28233;-83
2020/12/23 11:27:16;;;;;;;33.20;12.90;;;;;;;5.88;78.59;100593.02;1694392;81;25989;-82
2020/12/23 11:29:44;;;;;;;30.77;11.45;;;;;;;5.90;78.58;100597.69;1701182;82;25919;-82
2020/12/23 11:32:13;;;;;;;37.20;13.62;;;;;;;5.94;78.35;100596.90;1740080;82;26615;-83
2020/12/23 11:34:42;;;;;;;26.50;10.63;;;;;;;5.96;78.37;100599.74;1697172;82;26392;-83
2020/12/23 11:37:10;;;;;;;48.65;17.98;;;;;;;5.98;78.29;100597.77;1711640;82;27520;-84
2020/12/23 11:39:38;;;;;;;22.77;10.78;;;;;;;6.02;78.12;100595.12;1737592;82;25839;-85
2020/12/23 11:42:06;;;;;;;20.85;10.00;;;;;;;6.07;78.06;100597.31;1740714;82;25854;-84
2020/12/23 11:44:34;;;;;;;16.80;7.50;;;;;;;6.09;78.21;100594.00;1689310;82;25861;-84
2020/12/23 11:47:02;;;;;;;16.65;7.25;;;;;;;6.12;78.20;100596.32;1713955;82;25928;-82
2020/12/23 11:49:31;;;;;;;17.87;8.83;;;;;;;6.14;78.14;100599.66;1692007;82;27550;-82